createdAt,value
2018-06-22T00:00:43.543Z,957.34
2018-06-22T00:01:43.530Z,957.32
2018-06-22T00:02:43.521Z,957.35
2018-06-22T00:03:43.511Z,957.33
2018-06-22T00:04:43.507Z,957.33
2018-06-22T00:05:43.536Z,957.28
2018-06-22T00:06:43.482Z,957.32
2018-06-22T00:07:43.471Z,957.28
2018-06-22T00:08:43.462Z,957.28
2018-06-22T00:09:43.452Z,957.31
2018-06-22T00:10:43.443Z,957.31
2018-06-22T00:11:43.439Z,957.29
2018-06-22T00:12:43.423Z,957.31
2018-06-22T00:13:43.413Z,957.36
2018-06-22T00:14:43.402Z,957.35
2018-06-22T00:15:43.394Z,957.33
2018-06-22T00:16:43.383Z,957.32
2018-06-22T00:17:43.374Z,957.37
2018-06-22T00:18:43.364Z,957.39
2018-06-22T00:19:43.357Z,957.38
2018-06-22T00:20:43.345Z,957.35
2018-06-22T00:21:43.334Z,957.4
2018-06-22T00:22:43.325Z,957.38
2018-06-22T00:23:43.316Z,957.39
2018-06-22T00:24:43.305Z,957.37
2018-06-22T00:25:43.301Z,957.39
2018-06-22T00:26:43.286Z,957.39
2018-06-22T00:27:43.277Z,957.42
2018-06-22T00:28:43.268Z,957.41
2018-06-22T00:29:43.258Z,957.41
2018-06-22T00:30:43.249Z,957.44
2018-06-22T00:31:43.239Z,957.45
2018-06-22T00:32:43.229Z,957.45
2018-06-22T00:33:43.220Z,957.45
2018-06-22T00:34:43.210Z,957.45
2018-06-22T00:35:43.200Z,957.47
2018-06-22T00:36:43.191Z,957.52
2018-06-22T00:37:43.183Z,957.48
2018-06-22T00:38:43.172Z,957.49
2018-06-22T00:39:43.161Z,957.46
2018-06-22T00:40:43.152Z,957.46
2018-06-22T00:41:43.143Z,957.49
2018-06-22T00:42:43.135Z,957.53
2018-06-22T00:43:43.123Z,957.5
2018-06-22T00:44:43.114Z,957.45
2018-06-22T00:45:43.106Z,957.48
2018-06-22T00:46:43.095Z,957.48
2018-06-22T00:47:43.087Z,957.5
2018-06-22T00:48:43.077Z,957.45
2018-06-22T00:49:43.068Z,957.47
2018-06-22T00:50:43.058Z,957.5
2018-06-22T00:51:43.049Z,957.51
2018-06-22T00:52:43.039Z,957.52
2018-06-22T00:53:43.029Z,957.49
2018-06-22T00:54:43.019Z,957.53
2018-06-22T00:55:43.009Z,957.47
2018-06-22T00:56:42.999Z,957.47
2018-06-22T00:57:42.989Z,957.46
2018-06-22T00:58:42.981Z,957.49
2018-06-22T00:59:42.971Z,957.48
2018-06-22T01:00:42.965Z,957.48
2018-06-22T01:01:42.951Z,957.54
2018-06-22T01:02:42.940Z,957.49
2018-06-22T01:03:42.932Z,957.54
2018-06-22T01:04:42.920Z,957.52
2018-06-22T01:05:42.913Z,957.53
2018-06-22T01:06:42.906Z,957.57
2018-06-22T01:07:42.891Z,957.58
2018-06-22T01:08:42.882Z,957.6
2018-06-22T01:09:42.871Z,957.59
2018-06-22T01:10:42.864Z,957.58
2018-06-22T01:11:42.853Z,957.62
2018-06-22T01:12:42.862Z,957.58
2018-06-22T01:13:42.831Z,957.58
2018-06-22T01:14:42.823Z,957.59
2018-06-22T01:15:42.812Z,957.62
2018-06-22T01:16:42.801Z,957.61
2018-06-22T01:17:42.791Z,957.63
2018-06-22T01:18:42.782Z,957.62
2018-06-22T01:19:42.770Z,957.58
2018-06-22T01:20:42.765Z,957.58
2018-06-22T01:21:42.751Z,957.61
2018-06-22T01:22:42.742Z,957.57
2018-06-22T01:23:42.730Z,957.59
2018-06-22T01:24:42.720Z,957.55
2018-06-22T01:25:42.709Z,957.57
2018-06-22T01:26:42.701Z,957.57
2018-06-22T01:27:42.690Z,957.54
2018-06-22T01:28:42.679Z,957.56
2018-06-22T01:29:42.670Z,957.57
2018-06-22T01:30:42.658Z,957.59
2018-06-22T01:31:42.650Z,957.56
2018-06-22T01:32:42.640Z,957.6
2018-06-22T01:33:42.629Z,957.6
2018-06-22T01:34:42.621Z,957.61
2018-06-22T01:35:42.609Z,957.57
2018-06-22T01:36:42.606Z,957.61
2018-06-22T01:37:42.588Z,957.64
2018-06-22T01:38:42.580Z,957.64
2018-06-22T01:39:42.570Z,957.59
2018-06-22T01:40:42.559Z,957.6
2018-06-22T01:41:42.548Z,957.63
2018-06-22T01:42:42.539Z,957.6
2018-06-22T01:43:42.528Z,957.6
2018-06-22T01:44:42.519Z,957.58
2018-06-22T01:45:42.508Z,957.63
2018-06-22T01:46:42.499Z,957.58
2018-06-22T01:47:42.487Z,957.61
2018-06-22T01:48:42.478Z,957.59
2018-06-22T01:49:42.471Z,957.61
2018-06-22T01:50:42.458Z,957.6
2018-06-22T01:51:42.448Z,957.63
2018-06-22T01:52:42.436Z,957.62
2018-06-22T01:53:42.427Z,957.59
2018-06-22T01:54:42.418Z,957.56
2018-06-22T01:55:42.407Z,957.65
2018-06-22T01:56:42.395Z,957.56
2018-06-22T01:57:42.389Z,957.6
2018-06-22T01:58:42.377Z,957.57
2018-06-22T01:59:42.364Z,957.58
2018-06-22T02:00:42.355Z,957.57
2018-06-22T02:01:42.345Z,957.6
2018-06-22T02:02:42.335Z,957.61
2018-06-22T02:03:42.324Z,957.58
2018-06-22T02:04:42.314Z,957.6
2018-06-22T02:05:42.336Z,957.6
2018-06-22T02:06:42.295Z,957.61
2018-06-22T02:07:42.283Z,957.63
2018-06-22T02:08:42.276Z,957.62
2018-06-22T02:09:42.263Z,957.61
2018-06-22T02:10:42.253Z,957.63
2018-06-22T02:11:42.241Z,957.61
2018-06-22T02:12:42.232Z,957.59
2018-06-22T02:13:42.221Z,957.56
2018-06-22T02:14:42.213Z,957.62
2018-06-22T02:15:42.201Z,957.57
2018-06-22T02:16:42.189Z,957.61
2018-06-22T02:17:42.179Z,957.61
2018-06-22T02:18:42.170Z,957.56
2018-06-22T02:19:42.157Z,957.56
2018-06-22T02:20:42.149Z,957.6
2018-06-22T02:21:42.136Z,957.56
2018-06-22T02:22:42.129Z,957.58
2018-06-22T02:23:42.115Z,957.51
2018-06-22T02:24:42.105Z,957.52
2018-06-22T02:25:42.093Z,957.54
2018-06-22T02:26:42.085Z,957.48
2018-06-22T02:27:42.072Z,957.52
2018-06-22T02:28:42.061Z,957.52
2018-06-22T02:29:42.049Z,957.47
2018-06-22T02:30:42.039Z,957.53
2018-06-22T02:31:42.028Z,957.52
2018-06-22T02:32:42.015Z,957.53
2018-06-22T02:33:42.005Z,957.52
2018-06-22T02:34:41.994Z,957.56
2018-06-22T02:35:41.984Z,957.53
2018-06-22T02:36:41.972Z,957.51
2018-06-22T02:37:41.961Z,957.5
2018-06-22T02:38:41.951Z,957.51
2018-06-22T02:39:41.940Z,957.51
2018-06-22T02:40:41.928Z,957.52
2018-06-22T02:41:41.917Z,957.54
2018-06-22T02:42:41.906Z,957.55
2018-06-22T02:43:41.893Z,957.54
2018-06-22T02:44:41.882Z,957.63
2018-06-22T02:45:41.897Z,957.6
2018-06-22T02:46:41.861Z,957.56
2018-06-22T02:47:41.849Z,957.52
2018-06-22T02:48:41.841Z,957.57
2018-06-22T02:49:41.827Z,957.5
2018-06-22T02:50:41.816Z,957.54
2018-06-22T02:51:41.806Z,957.49
2018-06-22T02:52:41.795Z,957.5
2018-06-22T02:53:41.784Z,957.5
2018-06-22T02:54:41.773Z,957.49
2018-06-22T02:55:41.760Z,957.44
2018-06-22T02:56:41.749Z,957.5
2018-06-22T02:57:41.739Z,957.48
2018-06-22T02:58:41.727Z,957.49
2018-06-22T02:59:41.718Z,957.52
2018-06-22T03:00:41.707Z,957.55
2018-06-22T03:01:41.694Z,957.55
2018-06-22T03:02:41.685Z,957.56
2018-06-22T03:03:41.671Z,957.58
2018-06-22T03:04:41.661Z,957.57
2018-06-22T03:05:41.649Z,957.54
2018-06-22T03:06:41.637Z,957.54
2018-06-22T03:07:41.628Z,957.53
2018-06-22T03:08:41.615Z,957.5
2018-06-22T03:09:41.603Z,957.53
2018-06-22T03:10:41.593Z,957.53
2018-06-22T03:11:41.581Z,957.54
2018-06-22T03:12:41.571Z,957.48
2018-06-22T03:13:41.559Z,957.48
2018-06-22T03:14:41.549Z,957.49
2018-06-22T03:15:41.539Z,957.47
2018-06-22T03:16:41.533Z,957.48
2018-06-22T03:17:41.515Z,957.48
2018-06-22T03:18:41.503Z,957.54
2018-06-22T03:19:41.492Z,957.53
2018-06-22T03:20:41.480Z,957.51
2018-06-22T03:21:41.469Z,957.52
2018-06-22T03:22:41.459Z,957.53
2018-06-22T03:23:41.444Z,957.49
2018-06-22T03:24:41.435Z,957.53
2018-06-22T03:25:41.424Z,957.59
2018-06-22T03:26:41.412Z,957.57
2018-06-22T03:27:41.399Z,957.55
2018-06-22T03:28:41.390Z,957.57
2018-06-22T03:29:41.377Z,957.59
2018-06-22T03:30:41.365Z,957.63
2018-06-22T03:31:41.353Z,957.65
2018-06-22T03:32:41.342Z,957.56
2018-06-22T03:33:41.334Z,957.58
2018-06-22T03:34:41.318Z,957.57
2018-06-22T03:35:41.308Z,957.61
2018-06-22T03:36:41.298Z,957.61
2018-06-22T03:37:41.285Z,957.52
2018-06-22T03:38:41.272Z,957.63
2018-06-22T03:39:41.261Z,957.61
2018-06-22T03:40:41.250Z,957.61
2018-06-22T03:41:41.239Z,957.59
2018-06-22T03:42:41.226Z,957.61
2018-06-22T03:43:41.216Z,957.6
2018-06-22T03:44:41.204Z,957.58
2018-06-22T03:45:41.191Z,957.65
2018-06-22T03:46:41.179Z,957.61
2018-06-22T03:47:41.170Z,957.63
2018-06-22T03:48:41.158Z,957.58
2018-06-22T03:49:41.148Z,957.56
2018-06-22T03:50:41.133Z,957.58
2018-06-22T03:51:41.123Z,957.53
2018-06-22T03:52:41.110Z,957.54
2018-06-22T03:53:41.098Z,957.51
2018-06-22T03:54:41.093Z,957.53
2018-06-22T03:55:41.076Z,957.51
2018-06-22T03:56:41.121Z,957.52
2018-06-22T03:57:41.058Z,957.5
2018-06-22T03:58:41.042Z,957.53
2018-06-22T03:59:41.031Z,957.46
2018-06-22T04:00:41.018Z,957.47
2018-06-22T04:01:41.007Z,957.52
2018-06-22T04:02:40.996Z,957.53
2018-06-22T04:03:40.986Z,957.5
2018-06-22T04:04:40.972Z,957.52
2018-06-22T04:05:40.961Z,957.54
2018-06-22T04:06:40.952Z,957.55
2018-06-22T04:07:40.939Z,957.47
2018-06-22T04:08:40.925Z,957.53
2018-06-22T04:09:40.914Z,957.45
2018-06-22T04:10:40.902Z,957.5
2018-06-22T04:11:40.891Z,957.42
2018-06-22T04:12:40.879Z,957.44
2018-06-22T04:13:40.867Z,957.44
2018-06-22T04:14:40.858Z,957.36
2018-06-22T04:15:40.844Z,957.37
2018-06-22T04:16:40.834Z,957.33
2018-06-22T04:17:40.822Z,957.34
2018-06-22T04:18:40.811Z,957.29
2018-06-22T04:19:40.800Z,957.3
2018-06-22T04:20:40.789Z,957.31
2018-06-22T04:21:40.779Z,957.28
2018-06-22T04:22:40.766Z,957.31
2018-06-22T04:23:40.755Z,957.26
2018-06-22T04:24:40.745Z,957.3
2018-06-22T04:25:40.732Z,957.31
2018-06-22T04:26:40.720Z,957.32
2018-06-22T04:27:40.709Z,957.35
2018-06-22T04:28:40.699Z,957.37
2018-06-22T04:29:40.687Z,957.33
2018-06-22T04:30:40.676Z,957.38
2018-06-22T04:31:40.666Z,957.39
2018-06-22T04:32:40.659Z,957.38
2018-06-22T04:33:40.644Z,957.38
2018-06-22T04:34:40.632Z,957.36
2018-06-22T04:35:40.622Z,957.31
2018-06-22T04:36:40.614Z,957.33
2018-06-22T04:37:40.599Z,957.28
2018-06-22T04:38:40.593Z,957.32
2018-06-22T04:39:40.578Z,957.33
2018-06-22T04:40:40.571Z,957.29
2018-06-22T04:41:40.558Z,957.31
2018-06-22T04:42:40.546Z,957.3
2018-06-22T04:43:40.537Z,957.29
2018-06-22T04:44:40.524Z,957.3
2018-06-22T04:45:40.515Z,957.3
2018-06-22T04:46:40.503Z,957.33
2018-06-22T04:47:40.512Z,957.31
2018-06-22T04:48:40.485Z,957.3
2018-06-22T04:49:40.477Z,957.29
2018-06-22T04:50:40.464Z,957.28
2018-06-22T04:51:40.452Z,957.3
2018-06-22T04:52:40.444Z,957.32
2018-06-22T04:53:40.434Z,957.27
2018-06-22T04:54:40.424Z,957.27
2018-06-22T04:55:40.412Z,957.25
2018-06-22T04:56:40.401Z,957.2
2018-06-22T04:57:40.391Z,957.26
2018-06-22T04:58:40.381Z,957.25
2018-06-22T04:59:40.371Z,957.21
2018-06-22T05:00:40.362Z,957.23
2018-06-22T05:01:40.351Z,957.23
2018-06-22T05:02:40.341Z,957.21
2018-06-22T05:03:40.355Z,957.21
2018-06-22T05:04:40.321Z,957.21
2018-06-22T05:05:40.311Z,957.19
2018-06-22T05:06:40.302Z,957.18
2018-06-22T05:07:40.291Z,957.18
2018-06-22T05:08:40.281Z,957.15
2018-06-22T05:09:40.271Z,957.14
2018-06-22T05:10:40.276Z,957.16
2018-06-22T05:11:40.253Z,957.12
2018-06-22T05:12:40.243Z,957.13
2018-06-22T05:13:40.232Z,957.11
2018-06-22T05:14:40.223Z,957.13
2018-06-22T05:15:40.229Z,957.15
2018-06-22T05:16:40.206Z,957.11
2018-06-22T05:17:40.199Z,957.11
2018-06-22T05:18:40.185Z,957.12
2018-06-22T05:19:40.175Z,957.09
2018-06-22T05:20:40.165Z,957.11
2018-06-22T05:21:40.156Z,957.15
2018-06-22T05:22:40.208Z,957.14
2018-06-22T05:23:40.140Z,957.14
2018-06-22T05:24:40.125Z,957.14
2018-06-22T05:25:40.118Z,957.1
2018-06-22T05:26:40.116Z,957.14
2018-06-22T05:27:40.099Z,957.1
2018-06-22T05:28:40.088Z,957.12
2018-06-22T05:29:40.078Z,957.1
2018-06-22T05:30:40.070Z,957.08
2018-06-22T05:31:40.060Z,957.13
2018-06-22T05:32:40.050Z,957.1
2018-06-22T05:33:40.041Z,957.07
2018-06-22T05:34:40.033Z,957.12
2018-06-22T05:35:40.022Z,957.07
2018-06-22T05:36:40.014Z,957.12
2018-06-22T05:37:40.006Z,957.09
2018-06-22T05:38:39.993Z,957.11
2018-06-22T05:39:39.984Z,957.1
2018-06-22T05:40:39.973Z,957.07
2018-06-22T05:41:39.964Z,957.07
2018-06-22T05:42:39.953Z,957.09
2018-06-22T05:43:39.944Z,957.07
2018-06-22T05:44:39.935Z,957.06
2018-06-22T05:45:39.925Z,957.06
2018-06-22T05:46:39.916Z,957.07
2018-06-22T05:47:39.906Z,957.1
2018-06-22T05:48:39.897Z,957.09
2018-06-22T05:49:39.890Z,957.13
2018-06-22T05:50:39.889Z,957.11
2018-06-22T05:51:39.868Z,957.15
2018-06-22T05:52:39.857Z,957.13
2018-06-22T05:53:39.847Z,957.09
2018-06-22T05:54:39.838Z,957.08
2018-06-22T05:55:39.828Z,957.12
2018-06-22T05:56:39.829Z,957.11
2018-06-22T05:57:39.813Z,957.07
2018-06-22T05:58:39.802Z,957.03
2018-06-22T05:59:39.790Z,957.13
2018-06-22T06:00:39.781Z,957.09
2018-06-22T06:01:39.769Z,957.1
2018-06-22T06:02:39.761Z,957.11
2018-06-22T06:03:39.841Z,957.11
2018-06-22T06:04:39.741Z,957.05
2018-06-22T06:05:39.732Z,957.13
2018-06-22T06:06:39.722Z,957.03
2018-06-22T06:07:39.712Z,957.12
2018-06-22T06:08:39.701Z,957.14
2018-06-22T06:09:39.693Z,957.17
2018-06-22T06:10:39.684Z,957.15
2018-06-22T06:11:39.675Z,957.16
2018-06-22T06:12:39.737Z,957.16
2018-06-22T06:13:39.654Z,957.13
2018-06-22T06:14:39.645Z,957.12
2018-06-22T06:15:39.636Z,957.12
2018-06-22T06:16:39.625Z,957.13
2018-06-22T06:17:39.616Z,957.13
2018-06-22T06:18:39.607Z,957.11
2018-06-22T06:19:39.596Z,957.11
2018-06-22T06:20:39.589Z,957.06
2018-06-22T06:21:39.577Z,957.07
2018-06-22T06:22:39.569Z,957.03
2018-06-22T06:23:39.560Z,957.1
2018-06-22T06:24:39.550Z,957.07
2018-06-22T06:25:39.541Z,957.02
2018-06-22T06:26:39.532Z,957.04
2018-06-22T06:27:39.522Z,957.04
2018-06-22T06:28:39.513Z,957.06
2018-06-22T06:29:39.504Z,957.07
2018-06-22T06:30:39.495Z,957.1
2018-06-22T06:31:39.484Z,957.12
2018-06-22T06:32:39.476Z,957.04
2018-06-22T06:33:39.475Z,956.96
2018-06-22T06:34:39.455Z,957.03
2018-06-22T06:35:39.447Z,957.04
2018-06-22T06:36:39.438Z,957.02
2018-06-22T06:37:39.427Z,957.03
2018-06-22T06:38:39.418Z,957.03
2018-06-22T06:39:39.409Z,957.04
2018-06-22T06:40:39.401Z,957.06
2018-06-22T06:41:39.390Z,957.09
2018-06-22T06:42:39.380Z,957.03
2018-06-22T06:43:39.372Z,957.09
2018-06-22T06:44:39.362Z,957.05
2018-06-22T06:45:39.358Z,957.05
2018-06-22T06:46:39.343Z,957.03
2018-06-22T06:47:39.333Z,957.11
2018-06-22T06:48:39.324Z,957.09
2018-06-22T06:49:39.372Z,957.08
2018-06-22T06:50:39.304Z,957.11
2018-06-22T06:51:39.296Z,957.11
2018-06-22T06:52:39.285Z,957.09
2018-06-22T06:53:39.276Z,957.04
2018-06-22T06:54:39.267Z,957.05
2018-06-22T06:55:39.257Z,957.08
2018-06-22T06:56:39.250Z,957.1
2018-06-22T06:57:39.239Z,957.08
2018-06-22T06:58:39.228Z,957.12
2018-06-22T06:59:39.219Z,957.12
2018-06-22T07:00:39.211Z,957.07
2018-06-22T07:01:39.204Z,957.08
2018-06-22T07:02:39.230Z,957.11
2018-06-22T07:03:39.182Z,957.09
2018-06-22T07:04:39.174Z,957.09
2018-06-22T07:05:39.166Z,957.09
2018-06-22T07:06:39.156Z,957.12
2018-06-22T07:07:39.147Z,957.11
2018-06-22T07:08:39.138Z,957.04
2018-06-22T07:09:39.129Z,957.05
2018-06-22T07:10:39.119Z,957.09
2018-06-22T07:11:39.118Z,957.08
2018-06-22T07:12:39.103Z,957.1
2018-06-22T07:13:39.096Z,957.06
2018-06-22T07:14:39.084Z,957.04
2018-06-22T07:15:39.080Z,957.02
2018-06-22T07:16:39.067Z,957.02
2018-06-22T07:17:39.061Z,957.01
2018-06-22T07:18:39.052Z,957.04
2018-06-22T07:19:39.042Z,956.91
2018-06-22T07:20:39.036Z,956.92
2018-06-22T07:21:39.029Z,956.92
2018-06-22T07:22:39.018Z,956.99
2018-06-22T07:23:39.012Z,956.97
2018-06-22T07:24:39.003Z,956.96
2018-06-22T07:25:38.994Z,956.91
2018-06-22T07:26:38.987Z,957
2018-06-22T07:27:38.980Z,956.95
2018-06-22T07:28:38.973Z,956.99
2018-06-22T07:29:38.966Z,956.97
2018-06-22T07:30:38.987Z,956.88
2018-06-22T07:31:38.952Z,956.94
2018-06-22T07:32:38.944Z,956.94
2018-06-22T07:33:38.936Z,956.95
2018-06-22T07:34:38.930Z,956.89
2018-06-22T07:35:38.922Z,956.9
2018-06-22T07:36:38.916Z,956.92
2018-06-22T07:37:38.907Z,956.9
2018-06-22T07:38:38.901Z,956.93
2018-06-22T07:39:38.896Z,956.92
2018-06-22T07:40:38.886Z,956.95
2018-06-22T07:41:38.880Z,956.98
2018-06-22T07:42:38.877Z,957.04
2018-06-22T07:43:38.867Z,956.98
2018-06-22T07:44:38.863Z,957.01
2018-06-22T07:45:38.853Z,957.04
2018-06-22T07:46:38.845Z,957.05
2018-06-22T07:47:38.840Z,957.04
2018-06-22T07:48:38.830Z,957.06
2018-06-22T07:49:38.823Z,957.09
2018-06-22T07:50:38.815Z,957.08
2018-06-22T07:51:38.807Z,957.06
2018-06-22T07:52:38.802Z,957.09
2018-06-22T07:53:38.793Z,957.09
2018-06-22T07:54:38.785Z,957.12
2018-06-22T07:55:38.778Z,957.17
2018-06-22T07:56:38.771Z,957.13
2018-06-22T07:57:38.764Z,957.19
2018-06-22T07:58:38.828Z,957.14
2018-06-22T07:59:38.755Z,957.13
2018-06-22T08:00:38.741Z,957.13
2018-06-22T08:01:38.733Z,957.12
2018-06-22T08:02:38.724Z,957.15
2018-06-22T08:03:38.717Z,957.17
2018-06-22T08:04:38.710Z,957.13
2018-06-22T08:05:38.701Z,957.15
2018-06-22T08:06:38.693Z,957.13
2018-06-22T08:07:38.686Z,957.18
2018-06-22T08:08:38.722Z,957.15
2018-06-22T08:09:38.669Z,957.14
2018-06-22T08:10:38.662Z,957.18
2018-06-22T08:11:38.655Z,957.13
2018-06-22T08:12:38.644Z,957.18
2018-06-22T08:13:38.637Z,957.15
2018-06-22T08:14:38.628Z,957.15
2018-06-22T08:15:38.618Z,957.15
2018-06-22T08:16:38.609Z,957.2
2018-06-22T08:17:38.665Z,957.2
2018-06-22T08:18:38.597Z,957.16
2018-06-22T08:19:38.585Z,957.18
2018-06-22T08:20:38.577Z,957.23
2018-06-22T08:21:38.570Z,957.23
2018-06-22T08:22:38.561Z,957.21
2018-06-22T08:23:38.583Z,957.23
2018-06-22T08:24:38.541Z,957.29
2018-06-22T08:25:38.538Z,957.22
2018-06-22T08:26:38.531Z,957.29
2018-06-22T08:27:38.515Z,957.24
2018-06-22T08:28:38.506Z,957.24
2018-06-22T08:29:38.498Z,957.23
2018-06-22T08:30:38.489Z,957.26
2018-06-22T08:31:38.482Z,957.27
2018-06-22T08:32:38.474Z,957.23
2018-06-22T08:33:38.467Z,957.27
2018-06-22T08:34:38.456Z,957.22
2018-06-22T08:35:38.448Z,957.17
2018-06-22T08:36:38.440Z,957.22
2018-06-22T08:37:38.434Z,957.23
2018-06-22T08:38:38.422Z,957.25
2018-06-22T08:39:38.415Z,957.25
2018-06-22T08:40:38.411Z,957.29
2018-06-22T08:41:38.434Z,957.29
2018-06-22T08:42:38.391Z,957.32
2018-06-22T08:43:38.382Z,957.29
2018-06-22T08:44:38.379Z,957.29
2018-06-22T08:45:38.368Z,957.32
2018-06-22T08:46:38.359Z,957.31
2018-06-22T08:47:38.353Z,957.34
2018-06-22T08:48:38.345Z,957.4
2018-06-22T08:49:38.335Z,957.38
2018-06-22T08:50:38.332Z,957.35
2018-06-22T08:51:38.320Z,957.32
2018-06-22T08:52:38.312Z,957.38
2018-06-22T08:53:38.305Z,957.41
2018-06-22T08:54:38.297Z,957.37
2018-06-22T08:55:38.295Z,957.45
2018-06-22T08:56:38.284Z,957.38
2018-06-22T08:57:38.274Z,957.45
2018-06-22T08:58:38.265Z,957.46
2018-06-22T08:59:38.259Z,957.42
2018-06-22T09:00:38.254Z,957.46
2018-06-22T09:01:38.241Z,957.47
2018-06-22T09:02:38.234Z,957.46
2018-06-22T09:03:38.224Z,957.45
2018-06-22T09:04:38.216Z,957.49
2018-06-22T09:05:38.209Z,957.43
2018-06-22T09:06:38.201Z,957.47
2018-06-22T09:07:38.191Z,957.47
2018-06-22T09:08:38.185Z,957.48
2018-06-22T09:09:38.176Z,957.53
2018-06-22T09:10:38.170Z,957.53
2018-06-22T09:11:38.159Z,957.48
2018-06-22T09:12:38.244Z,957.5
2018-06-22T09:13:38.141Z,957.46
2018-06-22T09:14:38.236Z,957.5
2018-06-22T09:15:38.125Z,957.52
2018-06-22T09:16:38.117Z,957.47
2018-06-22T09:17:38.107Z,957.45
2018-06-22T09:18:38.098Z,957.46
2018-06-22T09:19:38.093Z,957.46
2018-06-22T09:20:38.081Z,957.46
2018-06-22T09:21:38.076Z,957.45
2018-06-22T09:22:38.063Z,957.46
2018-06-22T09:23:38.055Z,957.46
2018-06-22T09:24:38.048Z,957.43
2018-06-22T09:25:38.061Z,957.42
2018-06-22T09:26:38.030Z,957.48
2018-06-22T09:27:38.022Z,957.48
2018-06-22T09:28:38.013Z,957.49
2018-06-22T09:29:38.004Z,957.5
2018-06-22T09:30:37.995Z,957.52
2018-06-22T09:31:37.999Z,957.53
2018-06-22T09:32:37.979Z,957.52
2018-06-22T09:33:37.970Z,957.51
2018-06-22T09:34:37.960Z,957.5
2018-06-22T09:35:37.953Z,957.54
2018-06-22T09:36:37.978Z,957.56
2018-06-22T09:37:37.938Z,957.6
2018-06-22T09:38:37.937Z,957.57
2018-06-22T09:39:37.917Z,957.62
2018-06-22T09:40:37.907Z,957.59
2018-06-22T09:41:37.897Z,957.62
2018-06-22T09:42:38.033Z,957.63
2018-06-22T09:43:37.878Z,957.61
2018-06-22T09:44:37.869Z,957.63
2018-06-22T09:45:37.860Z,957.64
2018-06-22T09:46:37.851Z,957.64
2018-06-22T09:47:37.841Z,957.64
2018-06-22T09:48:37.831Z,957.66
2018-06-22T09:49:37.822Z,957.65
2018-06-22T09:50:37.813Z,957.69
2018-06-22T09:51:37.806Z,957.67
2018-06-22T09:52:37.794Z,957.66
2018-06-22T09:53:37.784Z,957.68
2018-06-22T09:54:37.775Z,957.71
2018-06-22T09:55:37.765Z,957.62
2018-06-22T09:56:37.755Z,957.67
2018-06-22T09:57:37.747Z,957.66
2018-06-22T09:58:37.738Z,957.66
2018-06-22T09:59:37.727Z,957.68
2018-06-22T10:00:37.720Z,957.67
2018-06-22T10:01:37.709Z,957.63
2018-06-22T10:02:37.698Z,957.65
2018-06-22T10:03:37.691Z,957.6
2018-06-22T10:04:37.730Z,957.63
2018-06-22T10:05:37.672Z,957.58
2018-06-22T10:06:37.661Z,957.67
2018-06-22T10:07:37.651Z,957.65
2018-06-22T10:08:37.644Z,957.74
2018-06-22T10:09:37.634Z,957.72
2018-06-22T10:10:37.624Z,957.73
2018-06-22T10:11:37.614Z,957.7
2018-06-22T10:12:37.605Z,957.68
2018-06-22T10:13:37.610Z,957.68
2018-06-22T10:14:37.591Z,957.64
2018-06-22T10:15:37.576Z,957.75
2018-06-22T10:16:37.567Z,957.76
2018-06-22T10:17:37.558Z,957.76
2018-06-22T10:18:37.548Z,957.74
2018-06-22T10:19:37.547Z,957.73
2018-06-22T10:20:37.528Z,957.74
2018-06-22T10:21:37.520Z,957.8
2018-06-22T10:22:37.510Z,957.75
2018-06-22T10:23:37.503Z,957.76
2018-06-22T10:24:37.491Z,957.8
2018-06-22T10:25:37.480Z,957.77
2018-06-22T10:26:37.472Z,957.82
2018-06-22T10:27:37.463Z,957.81
2018-06-22T10:28:37.452Z,957.84
2018-06-22T10:29:37.445Z,957.81
2018-06-22T10:30:37.433Z,957.82
2018-06-22T10:31:37.424Z,957.81
2018-06-22T10:32:37.412Z,957.81
2018-06-22T10:33:37.404Z,957.89
2018-06-22T10:34:37.393Z,957.85
2018-06-22T10:35:37.383Z,957.86
2018-06-22T10:36:37.373Z,957.91
2018-06-22T10:37:37.363Z,957.9
2018-06-22T10:38:37.354Z,957.91
2018-06-22T10:39:37.344Z,957.93
2018-06-22T10:40:37.333Z,957.89
2018-06-22T10:41:37.325Z,957.89
2018-06-22T10:42:37.314Z,957.93
2018-06-22T10:43:37.304Z,957.96
2018-06-22T10:44:37.296Z,958.03
2018-06-22T10:45:37.292Z,957.97
2018-06-22T10:46:37.274Z,958.03
2018-06-22T10:47:37.268Z,957.95
2018-06-22T10:48:37.254Z,957.99
2018-06-22T10:49:37.249Z,958
2018-06-22T10:50:37.233Z,957.97
2018-06-22T10:51:37.256Z,957.96
2018-06-22T10:52:37.286Z,957.97
2018-06-22T10:53:37.201Z,957.99
2018-06-22T10:54:37.192Z,958
2018-06-22T10:55:37.181Z,957.96
2018-06-22T10:56:37.173Z,957.95
2018-06-22T10:57:37.164Z,957.97
2018-06-22T10:58:37.151Z,957.97
2018-06-22T10:59:37.171Z,958.01
2018-06-22T11:00:37.130Z,957.97
2018-06-22T11:01:37.123Z,957.92
2018-06-22T11:02:37.111Z,957.98
2018-06-22T11:03:37.101Z,957.98
2018-06-22T11:04:37.098Z,957.97
2018-06-22T11:05:37.143Z,957.97
2018-06-22T11:06:37.069Z,957.97
2018-06-22T11:07:37.060Z,958.01
2018-06-22T11:08:37.049Z,957.98
2018-06-22T11:09:37.040Z,957.96
2018-06-22T11:10:37.029Z,958.02
2018-06-22T11:11:37.018Z,958.02
2018-06-22T11:12:37.008Z,958.01
2018-06-22T11:13:37.008Z,958
2018-06-22T11:14:36.993Z,957.98
2018-06-22T11:15:36.981Z,957.98
2018-06-22T11:16:36.977Z,957.97
2018-06-22T11:17:36.958Z,957.98
2018-06-22T11:18:36.948Z,957.98
2018-06-22T11:19:36.941Z,958
2018-06-22T11:20:36.928Z,958.03
2018-06-22T11:21:36.924Z,958.01
2018-06-22T11:22:36.908Z,957.98
2018-06-22T11:23:36.899Z,958.04
2018-06-22T11:24:36.975Z,958.08
2018-06-22T11:25:36.882Z,958.02
2018-06-22T11:26:36.869Z,958.01
2018-06-22T11:27:36.859Z,958
2018-06-22T11:28:36.849Z,957.99
2018-06-22T11:29:36.839Z,957.97
2018-06-22T11:30:36.837Z,957.98
2018-06-22T11:31:36.823Z,958
2018-06-22T11:32:36.816Z,957.98
2018-06-22T11:33:36.798Z,958.01
2018-06-22T11:34:36.868Z,957.97
2018-06-22T11:35:36.780Z,958.01
2018-06-22T11:36:36.772Z,958.09
2018-06-22T11:37:36.764Z,958.1
2018-06-22T11:38:36.752Z,958.09
2018-06-22T11:39:36.741Z,958.06
2018-06-22T11:40:36.734Z,958.08
2018-06-22T11:41:36.721Z,958.11
2018-06-22T11:42:36.713Z,958.13
2018-06-22T11:43:36.702Z,958.18
2018-06-22T11:44:36.690Z,958.1
2018-06-22T11:45:36.680Z,958.17
2018-06-22T11:46:36.671Z,958.16
2018-06-22T11:47:36.661Z,958.14
2018-06-22T11:48:36.653Z,958.12
2018-06-22T11:49:36.640Z,958.11
2018-06-22T11:50:36.632Z,958.12
2018-06-22T11:51:36.620Z,958.1
2018-06-22T11:52:36.610Z,958.13
2018-06-22T11:53:36.600Z,958.12
2018-06-22T11:54:36.594Z,958.1
2018-06-22T11:55:36.578Z,958.11
2018-06-22T11:56:36.569Z,958.14
2018-06-22T11:57:36.562Z,958.14
2018-06-22T11:58:36.549Z,958.1
2018-06-22T11:59:36.537Z,958.1
2018-06-22T12:00:36.528Z,958.15
2018-06-22T12:01:36.574Z,958.12
2018-06-22T12:02:36.507Z,958.08
2018-06-22T12:03:36.498Z,958.07
2018-06-22T12:04:36.519Z,958.07
2018-06-22T12:05:36.477Z,958.07
2018-06-22T12:06:36.466Z,958.07
2018-06-22T12:07:36.457Z,958.1
2018-06-22T12:08:36.447Z,958.13
2018-06-22T12:09:36.436Z,958.06
2018-06-22T12:10:36.425Z,958.11
2018-06-22T12:11:36.430Z,958.06
2018-06-22T12:12:36.405Z,958.09
2018-06-22T12:13:36.395Z,958.12
2018-06-22T12:14:36.387Z,958.17
2018-06-22T12:15:36.378Z,958.13
2018-06-22T12:16:36.365Z,958.12
2018-06-22T12:17:36.354Z,958.12
2018-06-22T12:18:36.346Z,958.15
2018-06-22T12:19:36.335Z,958.07
2018-06-22T12:20:36.325Z,958.09
2018-06-22T12:21:36.315Z,958.1
2018-06-22T12:22:36.306Z,958.15
2018-06-22T12:23:36.296Z,958.12
2018-06-22T12:24:36.285Z,958.16
2018-06-22T12:25:36.277Z,958.11
2018-06-22T12:26:36.266Z,958.12
2018-06-22T12:27:36.292Z,958.14
2018-06-22T12:28:36.247Z,958.14
2018-06-22T12:29:36.238Z,958.09
2018-06-22T12:30:36.228Z,958.15
2018-06-22T12:31:36.219Z,958.13